KFRI/FRI METAR and TAF weather

Enter ICAO airport designator
Station Type Date Time Source
KFRI METAR 2022/06/28 14:56 UTC NOAA

KFRI 281456Z 23004KT 10SM CLR 23/14 A3025 RMK AO2A SLP235 T02330143 58003 FZRANO $


Station Type Date Time Source
KFRI Decoded METAR 2022/06/28 14:56 UTC NOAA

Fort Riley, Marshall AAF Ft Riley, KS, United States (KFRI) 39-03-20N 096-45-51W
Jun 28, 2022 - 10:56 AM EDT / 2022.06.28 1456 UTC
Wind: from the SW (230 degrees) at 5 MPH (4 KT):0
Visibility: 10 mile(s):0
Sky conditions: clear
Temperature: 73.9 F (23.3 C)
Dew Point: 57.7 F (14.3 C)
Relative Humidity: 56%
Pressure (altimeter): 30.25 in. Hg (1024 hPa)
Pressure tendency: 0.01 inches (0.3 hPa) lower than three hours ago
ob: KFRI 281456Z 23004KT 10SM CLR 23/14 A3025 RMK AO2A SLP235 T02330143 58003 FZRANO
cycle: 15

Station Type Date Time Source
KFRI TAF 2022/06/28 04:40 UTC NOAA

TAF KFRI 280420Z 2804/2910 VRB06KT 9999 SCT150 QNH3022INS
BECMG 2811/2812 20009KT 9999 SKC QNH3008INS TX30/2821Z TN15/2810Z

Example: see airport list